Time,TemperatureF,DewpointF,PressureIn,WindDirection,WindDirectionDegrees,WindSpeedMPH,WindSpeedGustMPH,Humidity,HourlyPrecipIn,Conditions,Clouds,dailyrainin,SoftwareType,DateUTC
2013-03-02 00:10:00,53.7,43.0,30.00,WNW,286,2.0,9.0,67,0.00,,,0.00,weatherlink.com 1.10,2013-03-02 05:10:00,
2013-03-02 00:25:00,53.7,43.0,30.00,West,271,4.0,10.0,67,0.00,,,0.00,weatherlink.com 1.10,2013-03-02 05:25:00,
2013-03-02 00:40:00,53.6,43.0,30.00,NW,319,5.0,10.0,67,0.00,,,0.00,weatherlink.com 1.10,2013-03-02 05:40:00,
2013-03-02 00:55:00,53.5,43.0,30.00,NW,313,3.0,9.0,67,0.00,,,0.00,weatherlink.com 1.10,2013-03-02 05:55:00,
2013-03-02 01:10:00,53.4,43.0,30.00,SW,229,3.0,7.0,67,0.00,,,0.00,weatherlink.com 1.10,2013-03-02 06:10:00,
2013-03-02 01:25:00,53.3,43.0,30.00,WNW,292,3.0,7.0,68,0.00,,,0.00,weatherlink.com 1.10,2013-03-02 06:25:00,
2013-03-02 01:40:00,53.1,43.0,29.99,West,279,2.0,7.0,69,0.00,,,0.00,weatherlink.com 1.10,2013-03-02 06:40:00,
2013-03-02 01:56:00,53.0,43.0,29.99,West,264,5.0,8.0,69,0.00,,,0.00,weatherlink.com 1.10,2013-03-02 06:56:00,
2013-03-02 02:11:00,53.0,43.0,30.00,NW,306,2.0,8.0,69,0.00,,,0.00,weatherlink.com 1.10,2013-03-02 07:11:00,
2013-03-02 02:26:00,52.8,43.0,30.00,NW,313,3.0,8.0,69,0.00,,,0.00,weatherlink.com 1.10,2013-03-02 07:26:00,
2013-03-02 02:41:00,52.3,43.0,30.00,NW,323,5.0,11.0,70,0.00,,,0.00,weatherlink.com 1.10,2013-03-02 07:41:00,
2013-03-02 02:56:00,51.1,39.0,30.00,WNW,299,4.0,9.0,63,0.00,,,0.00,weatherlink.com 1.10,2013-03-02 07:56:00,
2013-03-02 03:11:00,50.3,38.0,30.01,West,273,4.0,6.0,63,0.00,,,0.00,weatherlink.com 1.10,2013-03-02 08:11:00,
2013-03-02 03:26:00,49.7,37.0,30.00,NNW,333,1.0,6.0,63,0.00,,,0.00,weatherlink.com 1.10,2013-03-02 08:26:00,
2013-03-02 03:41:00,49.2,37.0,30.00,WNW,298,1.0,5.0,64,0.00,,,0.00,weatherlink.com 1.10,2013-03-02 08:41:00,
2013-03-02 03:56:00,48.7,37.0,30.00,WNW,298,2.0,6.0,65,0.00,,,0.00,weatherlink.com 1.10,2013-03-02 08:56:00,
2013-03-02 04:11:00,48.5,38.0,30.00,West,281,2.0,7.0,67,0.00,,,0.00,weatherlink.com 1.10,2013-03-02 09:11:00,
2013-03-02 04:26:00,48.2,38.0,30.01,WNW,296,1.0,4.0,67,0.00,,,0.00,weatherlink.com 1.10,2013-03-02 09:26:00,
2013-03-02 04:41:00,47.9,37.0,30.01,WNW,293,0.0,4.0,67,0.00,,,0.00,weatherlink.com 1.10,2013-03-02 09:41:00,
2013-03-02 04:56:00,47.7,38.0,30.01,North,355,0.0,6.0,68,0.00,,,0.00,weatherlink.com 1.10,2013-03-02 09:56:00,
2013-03-02 05:11:00,48.2,37.0,30.00,NNE,21,4.0,7.0,65,0.00,,,0.00,weatherlink.com 1.10,2013-03-02 10:11:00,
2013-03-02 05:26:00,48.3,36.0,30.00,NNE,32,3.0,7.0,63,0.00,,,0.00,weatherlink.com 1.10,2013-03-02 10:26:00,
2013-03-02 05:41:00,48.1,36.0,30.00,NNE,28,1.0,4.0,63,0.00,,,0.00,weatherlink.com 1.10,2013-03-02 10:41:00,
2013-03-02 05:56:00,47.6,35.0,29.99,North,5,0.0,4.0,63,0.00,,,0.00,weatherlink.com 1.10,2013-03-02 10:56:00,
2013-03-02 06:11:00,47.3,36.0,29.99,North,5,0.0,1.0,64,0.00,,,0.00,weatherlink.com 1.10,2013-03-02 11:11:00,
2013-03-02 06:26:00,47.0,36.0,30.00,North,5,0.0,0.0,66,0.00,,,0.00,weatherlink.com 1.10,2013-03-02 11:26:00,
2013-03-02 06:41:00,46.2,36.0,29.99,North,5,0.0,0.0,67,0.00,,,0.00,weatherlink.com 1.10,2013-03-02 11:41:00,
2013-03-02 06:56:00,45.6,35.0,30.00,North,5,0.0,0.0,67,0.00,,,0.00,weatherlink.com 1.10,2013-03-02 11:56:00,
2013-03-02 07:11:00,44.6,35.0,30.00,North,5,0.0,0.0,70,0.00,,,0.00,weatherlink.com 1.10,2013-03-02 12:11:00,
2013-03-02 07:26:00,43.7,36.0,30.00,North,5,0.0,0.0,73,0.00,,,0.00,weatherlink.com 1.10,2013-03-02 12:26:00,
2013-03-02 07:41:00,42.8,36.0,30.01,North,5,0.0,0.0,77,0.00,,,0.00,weatherlink.com 1.10,2013-03-02 12:41:00,
2013-03-02 07:56:00,42.5,36.0,30.01,North,5,0.0,0.0,79,0.00,,,0.00,weatherlink.com 1.10,2013-03-02 12:56:00,
2013-03-02 08:12:00,45.3,38.0,30.02,NNW,340,1.0,3.0,75,0.00,,,0.00,weatherlink.com 1.10,2013-03-02 13:12:00,
2013-03-02 08:27:00,49.1,38.0,30.03,NNE,27,2.0,7.0,66,0.00,,,0.00,weatherlink.com 1.10,2013-03-02 13:27:00,
2013-03-02 08:42:00,50.9,36.0,30.03,NE,49,4.0,8.0,58,0.00,,,0.00,weatherlink.com 1.10,2013-03-02 13:42:00,
2013-03-02 08:57:00,52.2,36.0,30.03,North,5,2.0,8.0,54,0.00,,,0.00,weatherlink.com 1.10,2013-03-02 13:57:00,
2013-03-02 09:12:00,53.4,37.0,30.03,NNE,17,4.0,7.0,54,0.00,,,0.00,weatherlink.com 1.10,2013-03-02 14:12:00,
2013-03-02 09:27:00,53.0,37.0,30.03,NNW,327,2.0,6.0,54,0.00,,,0.00,weatherlink.com 1.10,2013-03-02 14:27:00,
2013-03-02 09:42:00,55.9,38.0,30.03,North,11,2.0,6.0,51,0.00,,,0.00,weatherlink.com 1.10,2013-03-02 14:42:00,
2013-03-02 09:57:00,55.1,38.0,30.02,WNW,285,3.0,10.0,53,0.00,,,0.00,weatherlink.com 1.10,2013-03-02 14:57:00,
2013-03-02 10:12:00,55.0,38.0,30.02,NW,304,1.0,7.0,53,0.00,,,0.00,weatherlink.com 1.10,2013-03-02 15:12:00,
2013-03-02 10:27:00,59.2,42.0,30.02,NW,308,4.0,7.0,54,0.00,,,0.00,weatherlink.com 1.10,2013-03-02 15:27:00,
2013-03-02 10:42:00,58.4,42.0,30.02,SW,235,3.0,8.0,54,0.00,,,0.00,weatherlink.com 1.10,2013-03-02 15:42:00,
2013-03-02 10:57:00,58.7,41.0,30.03,West,273,4.0,14.0,53,0.00,,,0.00,weatherlink.com 1.10,2013-03-02 15:57:00,
2013-03-02 11:12:00,58.9,42.0,30.03,NW,304,3.0,13.0,54,0.00,,,0.00,weatherlink.com 1.10,2013-03-02 16:12:00,
2013-03-02 11:27:00,58.3,42.0,30.04,NW,304,2.0,13.0,56,0.00,,,0.00,weatherlink.com 1.10,2013-03-02 16:27:00,
2013-03-02 11:42:00,59.5,41.0,30.04,West,281,7.0,12.0,51,0.00,,,0.00,weatherlink.com 1.10,2013-03-02 16:42:00,
2013-03-02 11:57:00,57.8,41.0,30.04,West,266,6.0,9.0,54,0.00,,,0.00,weatherlink.com 1.10,2013-03-02 16:57:00,
2013-03-02 12:12:00,59.5,42.0,30.04,West,280,5.0,13.0,52,0.00,,,0.00,weatherlink.com 1.10,2013-03-02 17:12:00,
2013-03-02 12:27:00,58.8,40.0,30.03,West,259,8.0,16.0,51,0.00,,,0.00,weatherlink.com 1.10,2013-03-02 17:27:00,
2013-03-02 12:42:00,56.4,40.0,30.04,West,261,5.0,14.0,55,0.00,,,0.00,weatherlink.com 1.10,2013-03-02 17:42:00,
2013-03-02 12:57:00,58.8,41.0,30.03,NW,313,3.0,13.0,53,0.00,,,0.00,weatherlink.com 1.10,2013-03-02 17:57:00,
2013-03-02 13:12:00,59.6,41.0,30.02,SW,232,4.0,11.0,50,0.00,,,0.00,weatherlink.com 1.10,2013-03-02 18:12:00,
2013-03-02 13:27:00,58.6,40.0,30.01,West,269,8.0,15.0,50,0.00,,,0.00,weatherlink.com 1.10,2013-03-02 18:27:00,
2013-03-02 13:42:00,56.8,40.0,30.00,West,261,9.0,12.0,53,0.00,,,0.00,weatherlink.com 1.10,2013-03-02 18:42:00,
2013-03-02 13:57:00,58.9,39.0,29.99,West,275,6.0,13.0,48,0.00,,,0.00,weatherlink.com 1.10,2013-03-02 18:57:00,
2013-03-02 14:12:00,58.6,39.0,29.98,WSW,254,11.0,11.0,48,0.00,,,0.00,weatherlink.com 1.10,2013-03-02 19:12:00,
2013-03-02 14:27:00,57.8,38.0,29.98,SW,236,8.0,13.0,48,0.00,,,0.00,weatherlink.com 1.10,2013-03-02 19:27:00,
2013-03-02 14:42:00,57.5,37.0,29.97,SW,236,7.0,17.0,47,0.00,,,0.00,weatherlink.com 1.10,2013-03-02 19:42:00,
2013-03-02 14:57:00,57.4,37.0,29.97,WSW,252,10.0,14.0,47,0.00,,,0.00,weatherlink.com 1.10,2013-03-02 19:57:00,
2013-03-02 15:12:00,57.6,37.0,29.97,West,267,7.0,16.0,47,0.00,,,0.00,weatherlink.com 1.10,2013-03-02 20:12:00,
2013-03-02 15:27:00,57.1,36.0,29.97,West,270,7.0,16.0,46,0.00,,,0.00,weatherlink.com 1.10,2013-03-02 20:27:00,
2013-03-02 15:42:00,57.3,37.0,29.96,West,260,5.0,13.0,47,0.00,,,0.00,weatherlink.com 1.10,2013-03-02 20:42:00,
2013-03-02 15:57:00,57.2,37.0,29.96,North,360,7.0,13.0,48,0.00,,,0.00,weatherlink.com 1.10,2013-03-02 20:57:00,
2013-03-02 16:12:00,58.0,37.0,29.96,West,260,11.0,15.0,46,0.00,,,0.00,weatherlink.com 1.10,2013-03-02 21:12:00,
2013-03-02 16:27:00,58.6,37.0,29.97,West,269,5.0,16.0,45,0.00,,,0.00,weatherlink.com 1.10,2013-03-02 21:27:00,
2013-03-02 16:42:00,57.2,36.0,29.98,WSW,254,7.0,15.0,46,0.00,,,0.00,weatherlink.com 1.10,2013-03-02 21:42:00,
2013-03-02 16:57:00,56.9,37.0,29.98,West,261,5.0,15.0,48,0.00,,,0.00,weatherlink.com 1.10,2013-03-02 21:57:00,
2013-03-02 17:12:00,56.1,37.0,29.98,West,279,6.0,15.0,50,0.00,,,0.00,weatherlink.com 1.10,2013-03-02 22:12:00,
2013-03-02 17:27:00,56.0,37.0,29.97,WNW,284,2.0,10.0,49,0.00,,,0.00,weatherlink.com 1.10,2013-03-02 22:27:00,
2013-03-02 17:42:00,55.2,37.0,29.98,West,260,10.0,12.0,51,0.00,,,0.00,weatherlink.com 1.10,2013-03-02 22:42:00,
2013-03-02 17:57:00,53.8,37.0,29.98,West,267,3.0,12.0,53,0.00,,,0.00,weatherlink.com 1.10,2013-03-02 22:57:00,
2013-03-02 18:12:00,53.5,37.0,29.99,West,268,3.0,10.0,55,0.00,,,0.00,weatherlink.com 1.10,2013-03-02 23:12:00,
2013-03-02 18:27:00,52.7,38.0,29.99,West,272,3.0,7.0,58,0.00,,,0.00,weatherlink.com 1.10,2013-03-02 23:27:00,
2013-03-02 18:42:00,51.8,38.0,30.00,West,268,2.0,13.0,60,0.00,,,0.00,weatherlink.com 1.10,2013-03-02 23:42:00,
2013-03-02 18:57:00,51.2,38.0,30.00,West,263,3.0,9.0,61,0.00,,,0.00,weatherlink.com 1.10,2013-03-02 23:57:00,
2013-03-02 19:12:00,50.7,39.0,29.99,WNW,295,3.0,4.0,64,0.00,,,0.00,weatherlink.com 1.10,2013-03-03 00:12:00,
2013-03-02 19:27:00,50.0,39.0,30.00,NNW,338,0.0,5.0,66,0.00,,,0.00,weatherlink.com 1.10,2013-03-03 00:27:00,
2013-03-02 19:42:00,49.3,39.0,30.00,NNW,338,0.0,2.0,67,0.00,,,0.00,weatherlink.com 1.10,2013-03-03 00:42:00,
2013-03-02 19:57:00,48.6,39.0,30.00,NNW,338,0.0,2.0,69,0.00,,,0.00,weatherlink.com 1.10,2013-03-03 00:57:00,
2013-03-02 20:12:00,47.7,38.0,30.01,NNW,338,0.0,0.0,69,0.00,,,0.00,weatherlink.com 1.10,2013-03-03 01:12:00,
2013-03-02 20:27:00,46.7,38.0,30.01,NNW,338,0.0,1.0,72,0.00,,,0.00,weatherlink.com 1.10,2013-03-03 01:27:00,
2013-03-02 20:42:00,45.9,38.0,30.01,NNW,338,0.0,0.0,73,0.00,,,0.00,weatherlink.com 1.10,2013-03-03 01:42:00,
2013-03-02 20:57:00,44.5,37.0,30.02,NNW,338,0.0,0.0,74,0.00,,,0.00,weatherlink.com 1.10,2013-03-03 01:57:00,
2013-03-02 21:28:00,41.9,36.0,30.01,NNW,338,0.0,0.0,79,0.00,,,0.00,weatherlink.com 1.10,2013-03-03 02:28:00,
2013-03-02 21:43:00,40.6,35.0,30.01,NNW,338,0.0,0.0,80,0.00,,,0.00,weatherlink.com 1.10,2013-03-03 02:43:00,
2013-03-02 21:58:00,39.6,35.0,30.01,NNW,338,0.0,0.0,82,0.00,,,0.00,weatherlink.com 1.10,2013-03-03 02:58:00,
2013-03-02 22:13:00,38.8,35.0,30.01,NNW,338,0.0,1.0,85,0.00,,,0.00,weatherlink.com 1.10,2013-03-03 03:13:00,
2013-03-02 22:28:00,38.5,35.0,30.01,NNW,338,0.0,1.0,87,0.00,,,0.00,weatherlink.com 1.10,2013-03-03 03:28:00,
2013-03-02 22:43:00,38.3,35.0,30.01,NNW,338,0.0,1.0,88,0.00,,,0.00,weatherlink.com 1.10,2013-03-03 03:43:00,
2013-03-02 22:58:00,38.2,35.0,30.01,NNW,338,0.0,0.0,89,0.00,,,0.00,weatherlink.com 1.10,2013-03-03 03:58:00,
2013-03-02 23:13:00,38.0,35.0,30.01,NNW,338,0.0,0.0,89,0.00,,,0.00,weatherlink.com 1.10,2013-03-03 04:13:00,
2013-03-02 23:28:00,37.9,35.0,30.00,NNW,338,0.0,0.0,89,0.00,,,0.00,weatherlink.com 1.10,2013-03-03 04:28:00,
2013-03-02 23:43:00,37.9,35.0,30.00,NNW,338,0.0,0.0,90,0.00,,,0.00,weatherlink.com 1.10,2013-03-03 04:43:00,
2013-03-02 23:58:00,38.3,36.0,30.00,NNW,338,0.0,0.0,91,0.00,,,0.00,weatherlink.com 1.10,2013-03-03 04:58:00,